Time;durP1;ratioP1;P1;durP2;ratioP2;P2;SDS_P1;SDS_P2;PMS_P1;PMS_P2;Temp;Humidity;BMP_temperature;BMP_pressure;BME280_temperature;BME280_humidity;BME280_pressure;Samples;Min_cycle;Max_cycle;Signal;HPM_P1;HPM_P2
2024/01/12 00:04:20;;;;;;;35.60;20.00;;;;;;;-2.82;85.78;99635.52;226437;1273;22537;-72
2024/01/12 00:09:22;;;;;;;36.20;20.50;;;;;;;-2.82;85.63;99641.66;226399;1270;24387;-73
2024/01/12 00:14:24;;;;;;;35.60;20.30;;;;;;;-2.81;85.93;99644.01;226444;1264;22636;-72
2024/01/12 00:19:26;;;;;;;34.90;19.70;;;;;;;-2.80;85.79;99652.05;226477;1270;22678;-73
2024/01/12 00:24:28;;;;;;;34.10;21.10;;;;;;;-2.80;85.72;99657.58;226353;1272;22696;-73
2024/01/12 00:29:30;;;;;;;32.30;20.30;;;;;;;-2.79;85.99;99665.96;226453;1270;22580;-72
2024/01/12 00:34:32;;;;;;;34.20;20.60;;;;;;;-2.76;86.12;99663.58;226319;1273;24330;-72
2024/01/12 00:39:36;;;;;;;34.90;20.40;;;;;;;-2.74;86.03;99665.00;226324;1273;22629;-73
2024/01/12 00:44:38;;;;;;;37.00;21.30;;;;;;;-2.71;86.22;99670.07;226434;1273;26387;-73
2024/01/12 00:49:40;;;;;;;36.80;21.10;;;;;;;-2.69;86.53;99675.45;226263;1272;22687;-73
2024/01/12 00:54:42;;;;;;;37.40;20.80;;;;;;;-2.67;86.43;99680.69;226365;1266;22650;-73
2024/01/12 00:59:44;;;;;;;36.10;20.50;;;;;;;-2.65;86.29;99690.04;226463;1269;22670;-73
2024/01/12 01:04:46;;;;;;;33.70;20.30;;;;;;;-2.63;86.45;99688.36;226460;1267;22596;-73
2024/01/12 01:09:48;;;;;;;40.60;22.00;;;;;;;-2.58;86.51;99687.09;226362;1272;23094;-73
2024/01/12 01:14:50;;;;;;;39.70;23.00;;;;;;;-2.53;86.62;99687.32;226459;1256;23055;-73
2024/01/12 01:19:52;;;;;;;39.70;23.60;;;;;;;-2.48;86.55;99686.55;226417;1269;22717;-73
2024/01/12 01:24:54;;;;;;;40.40;21.90;;;;;;;-2.46;86.53;99684.52;226432;1272;22680;-73
2024/01/12 01:29:56;;;;;;;41.80;24.30;;;;;;;-2.44;86.72;99680.99;226433;1272;22578;-74
2024/01/12 01:34:58;;;;;;;42.10;24.10;;;;;;;-2.44;86.64;99680.44;226337;1270;23004;-73
2024/01/12 01:40:02;;;;;;;43.80;23.40;;;;;;;-2.40;86.61;99688.38;226493;1270;22544;-73
2024/01/12 01:45:04;;;;;;;41.20;22.90;;;;;;;-2.37;86.74;99679.70;226448;1266;22588;-72
2024/01/12 01:50:07;;;;;;;42.20;22.90;;;;;;;-2.34;86.61;99679.41;226475;1266;22797;-73
2024/01/12 01:55:14;;;;;;;39.50;22.00;;;;;;;-2.34;86.83;99678.70;226478;1267;22702;-73
2024/01/12 02:00:17;;;;;;;39.60;22.00;;;;;;;-2.34;86.77;99679.72;226318;1272;24590;-73
2024/01/12 02:05:21;;;;;;;38.60;21.40;;;;;;;-2.31;86.78;99680.96;226260;1272;22572;-73
2024/01/12 02:10:23;;;;;;;35.70;20.10;;;;;;;-2.28;86.73;99682.66;226535;1267;22607;-73
2024/01/12 02:15:25;;;;;;;37.00;21.80;;;;;;;-2.26;86.71;99678.06;226503;1272;22582;-72
2024/01/12 02:20:27;;;;;;;38.00;20.90;;;;;;;-2.21;87.02;99664.84;226311;1272;22550;-73
2024/01/12 02:25:29;;;;;;;31.70;18.30;;;;;;;-2.17;86.78;99663.42;226405;1273;22570;-73
2024/01/12 02:30:31;;;;;;;32.10;17.90;;;;;;;-2.16;86.88;99681.31;226519;1266;22558;-73
2024/01/12 02:35:34;;;;;;;30.10;17.00;;;;;;;-2.16;86.89;99680.27;226403;1272;22547;-72
2024/01/12 02:40:36;;;;;;;28.20;16.70;;;;;;;-2.15;86.90;99680.04;226470;1273;22615;-73
2024/01/12 02:45:38;;;;;;;28.40;16.10;;;;;;;-2.14;86.82;99679.64;226507;1273;25524;-74
2024/01/12 02:50:40;;;;;;;30.30;17.10;;;;;;;-2.11;86.93;99682.27;226449;1272;22606;-74
2024/01/12 02:55:42;;;;;;;28.50;17.30;;;;;;;-2.13;86.66;99678.20;226397;1272;22628;-74
2024/01/12 03:00:44;;;;;;;31.70;18.50;;;;;;;-2.12;86.81;99670.23;226424;1269;22613;-74
2024/01/12 03:05:48;;;;;;;30.30;17.50;;;;;;;-2.13;86.82;99679.08;226259;1255;22533;-74
2024/01/12 03:10:50;;;;;;;28.00;17.40;;;;;;;-2.15;86.70;99671.91;226427;1254;22545;-72
2024/01/12 03:15:52;;;;;;;31.00;17.70;;;;;;;-2.15;86.74;99678.30;226523;1269;22969;-72
2024/01/12 03:20:54;;;;;;;28.60;18.20;;;;;;;-2.12;86.64;99681.79;226451;1264;22551;-73
2024/01/12 03:25:58;;;;;;;31.80;17.90;;;;;;;-2.09;86.79;99684.41;226468;1271;22543;-74
2024/01/12 03:31:03;;;;;;;31.50;17.40;;;;;;;-2.08;86.78;99673.80;226404;1272;22555;-73
2024/01/12 03:36:07;;;;;;;29.10;17.40;;;;;;;-2.07;86.70;99677.33;226419;1273;22555;-73
2024/01/12 03:41:09;;;;;;;30.00;17.40;;;;;;;-2.09;86.72;99683.17;226235;1272;269771;-73
2024/01/12 03:46:11;;;;;;;30.40;17.90;;;;;;;-2.11;86.80;99689.17;226412;1270;22549;-74
2024/01/12 03:51:13;;;;;;;29.40;17.40;;;;;;;-2.14;86.80;99685.34;226470;1250;22641;-73
2024/01/12 03:56:15;;;;;;;31.30;17.40;;;;;;;-2.15;87.08;99686.39;226476;1266;22585;-73
2024/01/12 04:01:17;;;;;;;29.00;16.30;;;;;;;-2.15;86.95;99697.27;226468;1270;22547;-74
2024/01/12 04:06:19;;;;;;;31.20;17.10;;;;;;;-2.14;87.08;99696.70;226422;1272;22537;-73
2024/01/12 04:11:25;;;;;;;30.90;17.40;;;;;;;-2.13;87.07;99696.49;226361;1270;23041;-73
2024/01/12 04:16:27;;;;;;;31.80;17.00;;;;;;;-2.12;87.35;99696.09;226431;1272;22644;-73
2024/01/12 04:21:29;;;;;;;34.10;17.90;;;;;;;-2.11;87.41;99695.71;226443;1272;24454;-73
2024/01/12 04:26:31;;;;;;;34.00;18.50;;;;;;;-2.09;87.36;99699.06;226321;1272;22575;-74
2024/01/12 04:31:33;;;;;;;33.60;17.30;;;;;;;-2.08;87.51;99699.49;226460;1273;22548;-73
2024/01/12 04:36:35;;;;;;;35.90;18.10;;;;;;;-2.05;87.89;99698.45;226380;1272;22569;-73
2024/01/12 04:41:37;;;;;;;31.80;17.00;;;;;;;-2.02;87.48;99695.52;226298;1273;23013;-74
2024/01/12 04:46:40;;;;;;;30.90;17.20;;;;;;;-1.98;87.59;99701.50;226412;1270;24219;-74
2024/01/12 04:51:42;;;;;;;32.80;17.20;;;;;;;-1.95;87.64;99700.66;226526;1267;22532;-74
2024/01/12 04:56:44;;;;;;;34.00;17.80;;;;;;;-1.92;87.59;99702.54;226455;1269;22608;-74
2024/01/12 05:01:46;;;;;;;32.50;17.60;;;;;;;-1.91;87.60;99702.64;226316;1272;22695;-74
2024/01/12 05:06:48;;;;;;;36.90;16.80;;;;;;;-1.89;87.66;99709.59;226479;1272;22749;-74
2024/01/12 05:11:50;;;;;;;32.40;17.20;;;;;;;-1.85;87.68;99708.35;226379;1272;22556;-74
2024/01/12 05:16:52;;;;;;;29.20;17.10;;;;;;;-1.82;87.74;99709.23;226427;1269;22876;-74
2024/01/12 05:21:54;;;;;;;33.40;17.20;;;;;;;-1.81;87.73;99711.92;226442;1272;22540;-74
2024/01/12 05:26:56;;;;;;;28.90;17.60;;;;;;;-1.81;87.65;99718.14;226430;1270;22545;-74
2024/01/12 05:31:58;;;;;;;33.00;17.60;;;;;;;-1.80;87.89;99722.38;226324;1272;25613;-74
2024/01/12 05:37:00;;;;;;;32.50;16.20;;;;;;;-1.79;87.78;99715.44;226402;1272;22536;-74
2024/01/12 05:42:02;;;;;;;33.40;18.70;;;;;;;-1.79;87.41;99722.69;226473;1272;22650;-74
2024/01/12 05:47:04;;;;;;;30.50;17.40;;;;;;;-1.78;87.71;99723.45;226450;1270;22555;-74
2024/01/12 05:52:06;;;;;;;32.40;17.20;;;;;;;-1.77;87.56;99726.02;226278;1272;22529;-74
2024/01/12 05:57:09;;;;;;;31.90;16.30;;;;;;;-1.75;87.67;99731.11;226456;1269;22550;-74
2024/01/12 06:02:14;;;;;;;31.80;17.80;;;;;;;-1.74;87.71;99735.20;226375;1269;23007;-74
2024/01/12 06:07:17;;;;;;;34.60;18.50;;;;;;;-1.72;87.77;99741.32;226476;1271;22537;-74
2024/01/12 06:12:19;;;;;;;36.10;18.30;;;;;;;-1.73;87.67;99746.70;226412;1272;22541;-73
2024/01/12 06:17:21;;;;;;;32.90;15.80;;;;;;;-1.73;87.54;99753.44;226487;1270;22541;-74
2024/01/12 06:22:23;;;;;;;32.10;16.90;;;;;;;-1.73;87.61;99750.98;226436;1272;25345;-74
2024/01/12 06:27:25;;;;;;;29.80;17.70;;;;;;;-1.72;87.69;99753.20;226302;1272;23753;-74
2024/01/12 06:32:27;;;;;;;33.20;17.60;;;;;;;-1.73;87.45;99753.45;226391;1270;22652;-74
2024/01/12 06:37:29;;;;;;;33.50;18.20;;;;;;;-1.75;87.52;99760.27;226431;1272;22514;-75
2024/01/12 06:42:31;;;;;;;30.70;16.90;;;;;;;-1.77;87.60;99763.14;226409;1272;24208;-74
2024/01/12 06:47:34;;;;;;;32.00;18.10;;;;;;;-1.77;87.44;99766.27;226433;1253;22545;-75
2024/01/12 06:52:37;;;;;;;34.00;18.00;;;;;;;-1.75;87.60;99764.41;226609;1250;22544;-76
2024/01/12 06:57:39;;;;;;;34.70;18.30;;;;;;;-1.72;87.32;99763.56;226341;1266;22593;-76
2024/01/12 07:02:41;;;;;;;31.30;16.50;;;;;;;-1.70;87.44;99761.90;226290;1266;22563;-79
2024/01/12 07:07:43;;;;;;;31.40;17.30;;;;;;;-1.67;87.47;99761.42;226117;1260;22959;-77
2024/01/12 07:12:47;;;;;;;32.30;17.40;;;;;;;-1.64;87.34;99765.02;226105;1256;22593;-75
2024/01/12 07:17:49;;;;;;;31.10;17.60;;;;;;;-1.63;87.11;99766.66;225921;1267;22705;-76
2024/01/12 07:22:51;;;;;;;33.60;17.90;;;;;;;-1.60;87.25;99768.27;226164;1266;22545;-76
2024/01/12 07:27:54;;;;;;;27.90;16.30;;;;;;;-1.55;87.30;99770.05;226165;1251;22595;-77
2024/01/12 07:32:56;;;;;;;34.30;18.80;;;;;;;-1.50;87.24;99772.83;226063;1256;22544;-76
2024/01/12 07:37:58;;;;;;;30.50;16.80;;;;;;;-1.42;87.18;99769.60;225871;1257;22574;-76
2024/01/12 07:43:00;;;;;;;31.00;17.20;;;;;;;-1.29;87.32;99762.10;225957;1266;22554;-76
2024/01/12 07:48:02;;;;;;;32.70;17.80;;;;;;;-1.19;86.84;99761.02;226184;1263;23188;-76
2024/01/12 07:53:05;;;;;;;34.10;18.00;;;;;;;-1.08;86.79;99754.64;226072;1260;26040;-75
2024/01/12 07:58:07;;;;;;;30.30;17.90;;;;;;;-0.95;86.98;99749.91;226055;1266;22558;-76
2024/01/12 08:03:09;;;;;;;29.90;16.00;;;;;;;-0.79;86.61;99748.05;226139;1266;25128;-76
2024/01/12 08:08:12;;;;;;;30.70;15.70;;;;;;;-0.61;86.42;99748.01;226073;1259;24927;-76
2024/01/12 08:13:14;;;;;;;27.60;17.20;;;;;;;-0.46;86.05;99755.59;226134;1266;25368;-76
2024/01/12 08:18:19;;;;;;;26.70;16.60;;;;;;;-0.50;85.53;99762.20;226415;1269;25493;-77
2024/01/12 08:23:21;;;;;;;31.40;16.90;;;;;;;-0.53;85.49;99771.25;226199;1267;23175;-76
2024/01/12 08:28:23;;;;;;;24.70;15.20;;;;;;;-0.52;85.41;99775.83;226343;1262;25435;-76
2024/01/12 08:33:25;;;;;;;27.50;15.00;;;;;;;-0.52;85.35;99773.25;226298;1269;22553;-76
2024/01/12 08:38:27;;;;;;;22.70;13.10;;;;;;;-0.50;85.30;99766.03;226315;1272;22545;-76
2024/01/12 08:43:30;;;;;;;26.70;14.00;;;;;;;-0.29;85.31;99771.46;226224;1272;22537;-75
2024/01/12 08:48:35;;;;;;;24.90;15.00;;;;;;;-0.09;84.99;99771.08;226308;1256;24444;-76
2024/01/12 08:53:37;;;;;;;25.30;14.50;;;;;;;0.13;84.94;99779.70;226546;1267;23792;-75
2024/01/12 08:58:39;;;;;;;21.40;13.90;;;;;;;0.18;84.33;99776.23;226275;1272;25236;-75
2024/01/12 09:03:41;;;;;;;27.40;14.50;;;;;;;0.23;83.90;99778.05;226077;1267;22549;-75
2024/01/12 09:08:44;;;;;;;23.90;14.30;;;;;;;0.28;83.63;99781.16;226201;1260;22549;-75
2024/01/12 09:13:47;;;;;;;22.30;12.40;;;;;;;0.39;83.56;99784.66;226123;1265;22545;-76
2024/01/12 09:18:49;;;;;;;23.90;13.90;;;;;;;0.54;83.62;99796.46;226156;1272;22657;-75
2024/01/12 09:23:52;;;;;;;20.90;12.80;;;;;;;0.58;83.15;99795.00;226170;1266;22568;-77
2024/01/12 09:28:54;;;;;;;20.30;12.20;;;;;;;0.71;83.13;99796.93;226119;1269;22579;-77
2024/01/12 09:33:58;;;;;;;17.90;11.00;;;;;;;0.92;83.10;99796.04;226291;1269;22652;-77
2024/01/12 09:39:00;;;;;;;18.20;10.50;;;;;;;1.05;82.56;99795.33;226147;1267;25310;-75
2024/01/12 09:44:06;;;;;;;19.70;12.20;;;;;;;1.17;82.44;99799.23;226414;1272;26900;-76
2024/01/12 09:49:08;;;;;;;21.40;12.50;;;;;;;1.22;81.85;99796.77;226062;1267;22552;-76
2024/01/12 09:54:10;;;;;;;20.70;12.00;;;;;;;1.18;81.45;99796.73;226139;1267;22551;-75
2024/01/12 09:59:13;;;;;;;18.60;11.30;;;;;;;1.16;81.32;99798.27;225919;1270;22990;-78
2024/01/12 10:04:15;;;;;;;16.70;10.50;;;;;;;1.14;81.22;99797.02;226028;1266;26145;-77
2024/01/12 10:09:17;;;;;;;17.10;10.00;;;;;;;1.13;80.78;99794.45;226066;1272;24265;-77
2024/01/12 10:14:23;;;;;;;17.60;10.10;;;;;;;1.17;80.46;99790.08;226228;1267;22566;-76
2024/01/12 10:19:26;;;;;;;16.20;9.80;;;;;;;1.21;80.03;99794.42;226254;1267;23111;-76
2024/01/12 10:24:30;;;;;;;16.90;9.50;;;;;;;1.25;80.30;99795.70;227819;1269;22553;-79
2024/01/12 10:29:37;;;;;;;17.60;10.80;;;;;;;1.33;80.13;99793.09;225976;1270;24238;-81
2024/01/12 10:34:41;;;;;;;23.20;13.10;;;;;;;1.37;80.07;99790.02;226197;1266;22623;-77
2024/01/12 10:39:48;;;;;;;18.70;10.60;;;;;;;1.40;79.88;99793.12;226089;1266;22546;-76
2024/01/12 10:44:54;;;;;;;15.80;9.60;;;;;;;1.22;78.98;99795.23;226102;1272;26341;-78
2024/01/12 10:50:09;;;;;;;17.20;9.80;;;;;;;0.98;78.78;99793.57;226230;1267;22561;-77
2024/01/12 10:55:16;;;;;;;17.10;9.50;;;;;;;0.84;79.08;99774.20;225927;1260;22530;-77
2024/01/12 11:00:20;;;;;;;16.30;9.50;;;;;;;0.94;79.39;99773.73;226075;1257;22570;-77
2024/01/12 11:05:23;;;;;;;17.10;9.60;;;;;;;1.19;79.42;99772.84;226041;1273;22573;-77
2024/01/12 11:10:27;;;;;;;14.80;8.80;;;;;;;1.60;78.94;99770.05;226159;1270;22540;-78
2024/01/12 11:15:29;;;;;;;16.60;9.60;;;;;;;1.75;78.52;99767.40;225926;1266;22557;-77
2024/01/12 11:20:32;;;;;;;15.10;9.10;;;;;;;1.68;77.69;99766.69;226028;1266;22805;-76
2024/01/12 11:25:34;;;;;;;13.60;7.60;;;;;;;1.45;76.89;99752.52;226152;1272;25356;-77
2024/01/12 11:30:41;;;;;;;13.60;8.40;;;;;;;1.17;76.91;99752.37;226152;1269;22575;-77
2024/01/12 11:35:51;;;;;;;18.70;9.60;;;;;;;1.04;77.20;99752.71;226106;1253;22582;-77
2024/01/12 11:40:53;;;;;;;17.90;10.10;;;;;;;0.94;77.43;99748.90;226227;1266;22556;-77
2024/01/12 11:45:55;;;;;;;17.30;9.80;;;;;;;0.88;77.52;99742.17;226123;1266;22595;-76
2024/01/12 11:50:58;;;;;;;16.00;9.40;;;;;;;0.86;77.23;99734.24;226041;1270;25348;-76
2024/01/12 11:56:00;;;;;;;20.50;9.60;;;;;;;0.83;77.35;99731.27;226023;1269;22547;-77
2024/01/12 12:01:02;;;;;;;15.80;9.40;;;;;;;0.87;77.23;99725.98;226144;1270;22551;-78
2024/01/12 12:06:10;;;;;;;17.30;9.90;;;;;;;0.84;76.88;99715.96;226187;1266;22535;-78
2024/01/12 12:11:13;;;;;;;15.30;8.70;;;;;;;0.82;77.02;99707.21;226305;1250;24308;-77
2024/01/12 12:16:17;;;;;;;17.30;9.20;;;;;;;0.81;76.94;99701.95;226341;1267;22544;-82
2024/01/12 12:21:19;;;;;;;15.40;8.60;;;;;;;0.81;77.10;99693.92;226292;1267;22912;-77
2024/01/12 12:26:21;;;;;;;16.30;9.40;;;;;;;0.80;77.15;99686.91;226189;1267;22564;-77
2024/01/12 12:31:27;;;;;;;17.30;9.40;;;;;;;0.77;77.00;99681.60;226176;1257;23471;-77
2024/01/12 12:36:29;;;;;;;18.90;10.10;;;;;;;0.67;76.63;99677.73;226085;1269;22542;-77
2024/01/12 12:41:32;;;;;;;14.60;8.60;;;;;;;0.64;76.96;99672.75;226274;1266;22684;-77
2024/01/12 12:46:34;;;;;;;13.80;7.20;;;;;;;0.51;76.89;99669.84;226262;1269;22572;-78
2024/01/12 12:51:36;;;;;;;14.10;7.40;;;;;;;0.34;76.75;99675.79;226297;1266;22550;-77
2024/01/12 12:56:39;;;;;;;14.00;8.30;;;;;;;0.20;76.54;99673.09;226199;1270;22876;-78
2024/01/12 13:01:42;;;;;;;10.70;6.10;;;;;;;0.06;76.63;99671.91;226267;1272;22576;-77
2024/01/12 13:06:44;;;;;;;14.00;7.30;;;;;;;-0.00;76.72;99664.17;226177;1260;22561;-76
2024/01/12 13:11:47;;;;;;;14.60;7.00;;;;;;;-0.04;77.15;99666.90;226376;1253;25428;-77
2024/01/12 13:16:49;;;;;;;17.00;7.90;;;;;;;-0.04;77.32;99651.48;226349;1267;22535;-77
2024/01/12 13:21:52;;;;;;;14.60;8.60;;;;;;;-0.03;77.58;99639.45;226212;1272;25335;-78
2024/01/12 13:26:54;;;;;;;18.00;10.10;;;;;;;-0.02;77.62;99627.79;226402;1270;25394;-77
2024/01/12 13:31:56;;;;;;;19.70;10.60;;;;;;;0.00;77.76;99618.79;226351;1269;25382;-77
2024/01/12 13:37:01;;;;;;;14.20;8.80;;;;;;;0.04;78.00;99612.00;226264;1269;22568;-77
2024/01/12 13:42:04;;;;;;;16.30;8.80;;;;;;;0.04;77.86;99603.11;226255;1269;22555;-77
2024/01/12 13:47:06;;;;;;;16.00;9.70;;;;;;;0.05;77.99;99611.43;226263;1266;23048;-77
2024/01/12 13:52:11;;;;;;;18.90;10.40;;;;;;;0.05;78.17;99622.63;226214;1267;22507;-78
2024/01/12 13:57:13;;;;;;;17.60;9.80;;;;;;;0.01;78.13;99614.59;226193;1267;22558;-76
2024/01/12 14:02:15;;;;;;;20.80;12.00;;;;;;;-0.10;78.30;99615.11;226161;1270;22489;-79
2024/01/12 14:07:18;;;;;;;19.90;11.70;;;;;;;-0.12;78.39;99618.02;226135;1270;23063;-76
2024/01/12 14:12:23;;;;;;;23.70;13.70;;;;;;;-0.14;78.39;99631.00;226223;1267;22590;-77
2024/01/12 14:17:25;;;;;;;23.90;13.10;;;;;;;-0.20;78.42;99639.51;226243;1266;22566;-76
2024/01/12 14:22:27;;;;;;;18.80;11.30;;;;;;;-0.30;78.62;99638.08;226290;1266;24275;-75
2024/01/12 14:27:29;;;;;;;22.30;11.80;;;;;;;-0.41;78.53;99643.59;226286;1267;22715;-76
2024/01/12 14:32:32;;;;;;;16.90;10.30;;;;;;;-0.48;78.66;99637.20;226232;1257;22538;-76
2024/01/12 14:37:35;;;;;;;14.70;8.50;;;;;;;-0.57;78.66;99644.31;226294;1272;22617;-76
2024/01/12 14:42:37;;;;;;;26.40;15.30;;;;;;;-0.68;78.53;99645.85;226345;1260;22649;-77
2024/01/12 14:47:42;;;;;;;16.30;9.30;;;;;;;-0.79;78.78;99630.67;226345;1272;22603;-77
2024/01/12 14:52:47;;;;;;;13.10;7.30;;;;;;;-0.91;79.10;99626.73;226487;1269;23184;-78
2024/01/12 14:57:49;;;;;;;12.70;7.40;;;;;;;-0.99;79.10;99635.36;226258;1261;22529;-78
2024/01/12 15:02:51;;;;;;;14.60;8.40;;;;;;;-1.06;79.21;99638.21;226063;1272;22539;-79
2024/01/12 15:07:54;;;;;;;14.90;8.30;;;;;;;-1.12;79.26;99621.79;226214;1269;22735;-78
2024/01/12 15:12:56;;;;;;;11.30;6.70;;;;;;;-1.19;79.31;99618.27;225883;1273;22619;-76
2024/01/12 15:17:58;;;;;;;13.10;7.60;;;;;;;-1.28;79.28;99629.00;225694;1270;22928;-77
2024/01/12 15:23:01;;;;;;;15.10;7.70;;;;;;;-1.37;79.36;99622.14;225998;1270;22586;-77
2024/01/12 15:28:08;;;;;;;12.70;7.80;;;;;;;-1.43;79.56;99626.78;225769;1273;22544;-77
2024/01/12 15:33:10;;;;;;;16.50;9.10;;;;;;;-1.47;79.79;99632.23;226046;1273;22601;-77
2024/01/12 15:38:13;;;;;;;15.90;9.80;;;;;;;-1.48;79.77;99627.13;226018;1273;23367;-78
2024/01/12 15:43:15;;;;;;;15.70;8.60;;;;;;;-1.47;80.09;99623.77;226035;1273;239310;-78
2024/01/12 15:48:18;;;;;;;16.10;9.90;;;;;;;-1.48;80.01;99623.61;226190;1273;22878;-77
2024/01/12 15:53:20;;;;;;;19.70;9.10;;;;;;;-1.50;80.13;99622.88;226102;1270;25279;-78
2024/01/12 15:58:22;;;;;;;24.30;12.60;;;;;;;-1.49;80.23;99620.29;226002;1267;22662;-76
2024/01/12 16:03:24;;;;;;;20.60;11.00;;;;;;;-1.48;80.31;99613.10;226092;1273;22622;-76
2024/01/12 16:08:28;;;;;;;13.50;8.90;;;;;;;-1.47;80.26;99613.73;226355;1273;22556;-76
2024/01/12 16:13:30;;;;;;;17.00;9.30;;;;;;;-1.44;80.26;99610.44;226176;1273;23156;-77
2024/01/12 16:18:32;;;;;;;13.70;9.30;;;;;;;-1.44;80.52;99613.91;226140;1271;22655;-76
2024/01/12 16:23:34;;;;;;;14.90;9.10;;;;;;;-1.45;80.34;99608.60;226177;1273;25936;-77
2024/01/12 16:28:37;;;;;;;17.10;10.70;;;;;;;-1.44;80.44;99604.59;226068;1273;22550;-77
2024/01/12 16:33:39;;;;;;;10.80;7.10;;;;;;;-1.47;80.47;99593.02;226096;1273;22560;-77
2024/01/12 16:38:41;;;;;;;13.10;8.00;;;;;;;-1.47;80.35;99597.65;226296;1271;22637;-76
2024/01/12 16:43:44;;;;;;;11.70;8.30;;;;;;;-1.46;80.66;99592.23;226166;1273;22583;-76
2024/01/12 16:48:46;;;;;;;13.30;7.90;;;;;;;-1.48;80.32;99595.66;226049;1273;22566;-77
2024/01/12 16:53:48;;;;;;;13.90;8.30;;;;;;;-1.49;80.35;99590.86;226279;1270;22553;-78
2024/01/12 16:58:50;;;;;;;13.00;8.00;;;;;;;-1.46;80.62;99587.94;225999;1273;22561;-75
2024/01/12 17:03:52;;;;;;;13.00;8.20;;;;;;;-1.44;80.58;99574.70;226321;1273;22650;-76
2024/01/12 17:08:56;;;;;;;13.20;7.60;;;;;;;-1.44;80.44;99552.03;226134;1273;22583;-76
2024/01/12 17:13:58;;;;;;;11.60;7.90;;;;;;;-1.42;80.42;99543.13;226284;1270;22553;-75
2024/01/12 17:19:01;;;;;;;17.30;10.20;;;;;;;-1.38;80.51;99531.70;226307;1273;24342;-76
2024/01/12 17:24:04;;;;;;;14.90;9.50;;;;;;;-1.44;80.08;99525.10;226093;1270;22590;-76
2024/01/12 17:29:06;;;;;;;15.10;9.00;;;;;;;-1.51;80.08;99523.80;226236;1270;22572;-76
2024/01/12 17:34:08;;;;;;;16.60;10.40;;;;;;;-1.56;80.13;99530.34;226225;1273;22941;-76
2024/01/12 17:39:12;;;;;;;17.50;11.00;;;;;;;-1.58;80.08;99525.83;226264;1270;22571;-75
2024/01/12 17:44:14;;;;;;;13.90;9.50;;;;;;;-1.62;80.10;99523.98;226155;1270;22582;-76
2024/01/12 17:49:17;;;;;;;14.50;9.30;;;;;;;-1.63;80.38;99523.16;226080;1273;22781;-76
2024/01/12 17:54:23;;;;;;;18.90;11.30;;;;;;;-1.61;80.57;99522.22;225998;1273;22539;-78
2024/01/12 17:59:27;;;;;;;25.80;15.30;;;;;;;-1.63;80.46;99511.62;226165;1272;23137;-76
2024/01/12 18:04:29;;;;;;;23.00;14.10;;;;;;;-1.67;80.39;99508.92;226243;1273;25138;-76
2024/01/12 18:09:31;;;;;;;27.50;16.00;;;;;;;-1.68;80.53;99509.67;226269;1273;22583;-76
2024/01/12 18:14:36;;;;;;;24.80;14.20;;;;;;;-1.69;80.63;99498.85;226229;1266;22556;-75
2024/01/12 18:19:40;;;;;;;23.60;13.30;;;;;;;-1.75;80.52;99502.48;226111;1273;22989;-75
2024/01/12 18:24:46;;;;;;;22.70;13.60;;;;;;;-1.78;80.82;99511.08;226266;1270;22570;-75
2024/01/12 18:29:48;;;;;;;23.20;13.10;;;;;;;-1.75;81.07;99517.02;226237;1273;24810;-75
2024/01/12 18:34:50;;;;;;;27.50;15.80;;;;;;;-1.80;80.94;99503.46;226189;1272;22543;-75
2024/01/12 18:39:53;;;;;;;21.80;13.30;;;;;;;-1.84;80.98;99499.55;226267;1266;22572;-75
2024/01/12 18:44:55;;;;;;;26.20;15.10;;;;;;;-1.86;81.03;99499.19;226274;1272;22611;-74
2024/01/12 18:49:58;;;;;;;24.20;14.40;;;;;;;-1.87;81.15;99509.96;226116;1270;25310;-75
2024/01/12 18:55:02;;;;;;;26.70;14.90;;;;;;;-1.90;81.04;99513.41;226244;1273;22550;-75
2024/01/12 19:00:05;;;;;;;27.10;15.10;;;;;;;-1.94;81.10;99508.80;226047;1273;22550;-74
2024/01/12 19:05:07;;;;;;;30.00;16.10;;;;;;;-1.99;81.04;99496.00;226186;1273;26301;-75
2024/01/12 19:10:12;;;;;;;28.90;16.80;;;;;;;-2.02;81.64;99480.66;226311;1273;22551;-75
2024/01/12 19:15:15;;;;;;;32.70;18.60;;;;;;;-2.02;81.32;99481.55;226191;1273;22566;-76
2024/01/12 19:20:17;;;;;;;32.30;18.00;;;;;;;-2.06;81.52;99466.05;226310;1272;22567;-75
2024/01/12 19:25:20;;;;;;;34.20;20.00;;;;;;;-2.10;81.56;99467.21;226269;1270;22550;-75
2024/01/12 19:30:22;;;;;;;37.20;20.10;;;;;;;-2.10;81.90;99456.13;226211;1267;22585;-75
2024/01/12 19:35:24;;;;;;;34.60;18.60;;;;;;;-2.15;81.53;99441.89;226270;1272;23271;-74
2024/01/12 19:40:26;;;;;;;41.60;20.50;;;;;;;-2.22;81.45;99438.90;226125;1273;22633;-75
2024/01/12 19:45:28;;;;;;;37.30;19.50;;;;;;;-2.28;81.71;99447.00;226279;1270;23106;-74
2024/01/12 19:50:34;;;;;;;39.50;22.10;;;;;;;-2.26;81.79;99444.32;226225;1272;22570;-74
2024/01/12 19:55:38;;;;;;;34.50;19.40;;;;;;;-2.22;82.11;99435.64;226239;1272;22597;-74
2024/01/12 20:00:40;;;;;;;34.10;20.10;;;;;;;-2.19;81.85;99434.89;226124;1272;22623;-75
2024/01/12 20:05:42;;;;;;;35.90;20.60;;;;;;;-2.22;81.82;99440.98;226263;1270;22708;-75
2024/01/12 20:10:47;;;;;;;35.70;19.70;;;;;;;-2.26;81.78;99443.13;226178;1273;22557;-75
2024/01/12 20:15:51;;;;;;;41.50;22.20;;;;;;;-2.25;81.85;99432.70;226296;1273;24498;-75
2024/01/12 20:20:53;;;;;;;42.40;21.30;;;;;;;-2.23;81.95;99432.92;226264;1272;22626;-73
2024/01/12 20:25:58;;;;;;;39.20;20.90;;;;;;;-2.22;81.88;99423.72;226271;1273;22539;-74
2024/01/12 20:31:01;;;;;;;40.80;21.10;;;;;;;-2.24;81.88;99416.25;226220;1273;22536;-74
2024/01/12 20:36:04;;;;;;;33.60;18.90;;;;;;;-2.29;81.66;99426.18;226120;1273;23150;-74
2024/01/12 20:41:06;;;;;;;37.90;19.40;;;;;;;-2.29;81.95;99428.44;226116;1273;22679;-74
2024/01/12 20:46:08;;;;;;;39.20;19.60;;;;;;;-2.28;82.06;99427.87;226167;1273;22995;-74
2024/01/12 20:51:10;;;;;;;40.30;20.90;;;;;;;-2.25;81.91;99420.59;226266;1272;22674;-74
2024/01/12 20:56:12;;;;;;;36.90;19.90;;;;;;;-2.20;82.01;99426.66;226176;1273;22619;-73
2024/01/12 21:01:14;;;;;;;36.60;19.40;;;;;;;-2.15;82.32;99429.49;226254;1273;22534;-75
2024/01/12 21:06:16;;;;;;;35.90;19.50;;;;;;;-2.11;82.32;99424.46;226296;1273;22547;-73
2024/01/12 21:11:19;;;;;;;32.60;18.00;;;;;;;-2.14;81.77;99424.23;225903;1273;22576;-74
2024/01/12 21:16:22;;;;;;;33.10;17.10;;;;;;;-2.12;81.89;99418.83;226250;1273;22578;-75
2024/01/12 21:21:25;;;;;;;32.40;17.10;;;;;;;-2.09;81.98;99416.23;226323;1273;22582;-72
2024/01/12 21:26:27;;;;;;;31.40;17.40;;;;;;;-2.06;82.14;99417.20;226321;1272;23562;-74
2024/01/12 21:31:29;;;;;;;33.70;19.30;;;;;;;-2.03;82.33;99419.08;226234;1273;22577;-74
2024/01/12 21:36:33;;;;;;;31.80;16.90;;;;;;;-2.01;82.35;99418.27;226209;1254;22542;-75
2024/01/12 21:41:36;;;;;;;26.90;16.30;;;;;;;-1.98;82.37;99408.96;226271;1272;25940;-74
2024/01/12 21:46:41;;;;;;;29.00;16.00;;;;;;;-2.03;81.98;99409.26;226091;1273;22916;-73
2024/01/12 21:51:44;;;;;;;31.10;17.10;;;;;;;-2.09;81.84;99409.99;226237;1272;22550;-73
2024/01/12 21:56:46;;;;;;;30.80;16.70;;;;;;;-2.20;81.39;99410.30;226074;1273;23358;-74
2024/01/12 22:01:48;;;;;;;36.10;20.00;;;;;;;-2.27;81.84;99402.63;226329;1260;22551;-73
2024/01/12 22:06:59;;;;;;;35.30;18.60;;;;;;;-2.26;82.01;99398.44;226028;1273;22557;-73
2024/01/12 22:12:03;;;;;;;39.70;21.70;;;;;;;-2.26;82.01;99398.56;226290;1272;22674;-74
2024/01/12 22:17:05;;;;;;;36.30;19.50;;;;;;;-2.27;82.04;99386.93;226094;1273;22863;-74
2024/01/12 22:22:08;;;;;;;34.70;18.20;;;;;;;-2.27;81.95;99379.35;226249;1273;22624;-74
2024/01/12 22:27:10;;;;;;;38.30;20.70;;;;;;;-2.28;81.98;99381.47;226211;1272;22678;-73
2024/01/12 22:32:12;;;;;;;38.70;21.20;;;;;;;-2.28;81.94;99375.77;226060;1273;22543;-73
2024/01/12 22:37:14;;;;;;;42.90;22.50;;;;;;;-2.29;82.09;99372.02;226230;1259;22557;-74
2024/01/12 22:42:16;;;;;;;41.50;21.50;;;;;;;-2.29;81.84;99373.59;226102;1273;22548;-73
2024/01/12 22:47:18;;;;;;;39.40;20.90;;;;;;;-2.29;82.16;99364.96;226235;1265;24465;-73
2024/01/12 22:52:20;;;;;;;42.00;21.80;;;;;;;-2.31;82.01;99357.98;226368;1273;22545;-73
2024/01/12 22:57:22;;;;;;;38.40;21.10;;;;;;;-2.37;81.80;99350.61;226153;1269;22643;-74
2024/01/12 23:02:24;;;;;;;38.90;20.90;;;;;;;-2.40;82.04;99342.39;226305;1273;22546;-74